Time;durP1;ratioP1;P1;durP2;ratioP2;P2;SDS_P1;SDS_P2;PMS_P1;PMS_P2;Temp;Humidity;BMP_temperature;BMP_pressure;BME280_temperature;BME280_humidity;BME280_pressure;Samples;Min_cycle;Max_cycle;Signal;HPM_P1;HPM_P2
2023/09/02 00:02:43;;;;;;;8.70;5.75;;;;;;;-140.66;100.00;55571.53;5115596;28;20020;-72
2023/09/02 00:05:28;;;;;;;13.52;6.28;;;;;;;-140.66;100.00;55571.53;5115193;28;20120;-72
2023/09/02 00:08:14;;;;;;;8.20;6.28;;;;;;;-140.66;100.00;55571.53;5101208;28;20461;-72
2023/09/02 00:11:00;;;;;;;9.32;6.22;;;;;;;-140.66;100.00;55571.53;5099665;28;20039;-72
2023/09/02 00:13:46;;;;;;;14.40;6.28;;;;;;;-140.66;100.00;55571.53;5116195;28;20372;-71
2023/09/02 00:16:31;;;;;;;8.73;6.00;;;;;;;-140.66;100.00;55571.53;5115032;28;20488;-72
2023/09/02 00:19:17;;;;;;;15.15;6.50;;;;;;;-140.66;100.00;55571.53;5114754;28;20023;-71
2023/09/02 00:22:03;;;;;;;10.52;6.03;;;;;;;-140.66;100.00;55571.53;5115561;28;20019;-72
2023/09/02 00:24:49;;;;;;;7.63;6.05;;;;;;;-140.66;100.00;55571.53;5100450;28;20034;-72
2023/09/02 00:27:35;;;;;;;6.97;5.65;;;;;;;-140.66;100.00;55571.53;5099609;28;20365;-72
2023/09/02 00:30:21;;;;;;;8.98;5.72;;;;;;;-140.66;100.00;55571.53;5114947;28;20042;-72
2023/09/02 00:33:07;;;;;;;16.52;5.57;;;;;;;-140.66;100.00;55571.53;5099767;28;20023;-74
2023/09/02 00:35:53;;;;;;;9.05;5.47;;;;;;;-140.66;100.00;55571.53;5115106;28;20459;-73
2023/09/02 00:38:38;;;;;;;12.10;6.32;;;;;;;-140.66;100.00;55571.53;5115658;28;20361;-72
2023/09/02 00:41:32;;;;;;;9.73;5.47;;;;;;;-140.66;100.00;55571.53;5117094;28;20082;-73
2023/09/02 00:44:18;;;;;;;13.40;5.68;;;;;;;-140.66;100.00;55571.53;5113850;28;20057;-73
2023/09/02 00:47:04;;;;;;;8.85;5.63;;;;;;;-140.66;100.00;55571.53;5099352;28;20024;-73
2023/09/02 00:49:51;;;;;;;11.25;6.18;;;;;;;-140.66;100.00;55571.53;5099837;28;20047;-73
2023/09/02 00:52:37;;;;;;;10.38;6.22;;;;;;;-140.66;100.00;55571.53;5116046;28;20022;-73
2023/09/02 00:55:23;;;;;;;9.65;5.85;;;;;;;-140.66;100.00;55571.53;5115633;28;20123;-74
2023/09/02 00:58:08;;;;;;;26.45;7.15;;;;;;;-140.66;100.00;55571.53;5113404;28;20023;-72
2023/09/02 01:00:54;;;;;;;16.23;7.10;;;;;;;-140.66;100.00;55571.53;5116193;28;20035;-74
2023/09/02 01:03:40;;;;;;;7.95;5.90;;;;;;;-140.66;100.00;55571.53;5116592;28;20049;-72
2023/09/02 01:06:27;;;;;;;9.57;6.75;;;;;;;-140.66;100.00;55571.53;5114823;28;20042;-72
2023/09/02 01:09:14;;;;;;;15.02;7.32;;;;;;;-140.66;100.00;55571.53;5115215;28;20020;-73
2023/09/02 01:11:59;;;;;;;13.43;6.82;;;;;;;-140.66;100.00;55571.53;5114217;28;20042;-72
2023/09/02 01:14:45;;;;;;;10.18;7.07;;;;;;;-140.66;100.00;55571.53;5116900;28;20042;-71
2023/09/02 01:17:31;;;;;;;11.02;6.82;;;;;;;-140.66;100.00;55571.53;5119240;28;20463;-72
2023/09/02 01:20:18;;;;;;;16.23;8.63;;;;;;;-140.66;100.00;55571.53;5118575;28;20168;-72
2023/09/02 01:23:06;;;;;;;13.02;7.95;;;;;;;-140.66;100.00;55571.53;5106754;28;20114;-72
2023/09/02 01:26:25;;;;;;;10.93;7.38;;;;;;;-140.66;100.00;55571.53;5120198;28;20023;-72
2023/09/02 01:29:15;;;;;;;9.20;7.47;;;;;;;-140.66;100.00;55571.53;5097901;28;20020;-72
2023/09/02 01:32:03;;;;;;;11.73;8.02;;;;;;;-140.66;100.00;55571.53;5118245;28;20028;-73
2023/09/02 01:34:49;;;;;;;15.88;7.57;;;;;;;-140.66;100.00;55571.53;5117477;28;20172;-74
2023/09/02 01:37:48;;;;;;;13.90;8.18;;;;;;;-140.66;100.00;55571.53;5104202;28;20037;-72
2023/09/02 01:40:35;;;;;;;13.57;8.63;;;;;;;-140.66;100.00;55571.53;5120115;28;20494;-72
2023/09/02 01:43:23;;;;;;;23.60;9.50;;;;;;;-140.66;100.00;55571.53;5119441;28;20035;-72
2023/09/02 01:46:10;;;;;;;13.23;9.40;;;;;;;-140.66;100.00;55571.53;5105373;28;20430;-73
2023/09/02 01:48:56;;;;;;;12.90;9.02;;;;;;;-140.66;100.00;55571.53;5117198;28;20075;-72
2023/09/02 01:51:44;;;;;;;14.88;9.05;;;;;;;-140.66;100.00;55571.53;5104012;28;20030;-72
2023/09/02 01:54:31;;;;;;;11.50;8.38;;;;;;;-140.66;100.00;55571.53;5116028;28;20039;-72
2023/09/02 01:57:17;;;;;;;10.95;8.60;;;;;;;-140.66;100.00;55571.53;5117377;28;20031;-72
2023/09/02 02:00:04;;;;;;;14.80;9.00;;;;;;;-140.66;100.00;55571.53;5116422;28;20106;-72
2023/09/02 02:02:53;;;;;;;11.15;8.25;;;;;;;-140.66;100.00;55571.53;5116735;28;20027;-73
2023/09/02 02:05:53;;;;;;;11.98;7.90;;;;;;;-140.66;100.00;55571.53;5117479;28;20106;-72
2023/09/02 02:09:04;;;;;;;10.38;7.30;;;;;;;-140.66;100.00;55571.53;5116801;28;20050;-73
2023/09/02 02:11:51;;;;;;;8.43;6.55;;;;;;;-140.66;100.00;55571.53;5101792;28;20034;-72
2023/09/02 02:14:37;;;;;;;9.38;6.55;;;;;;;-140.66;100.00;55571.53;5116668;28;20035;-72
2023/09/02 02:17:22;;;;;;;7.55;6.20;;;;;;;-140.66;100.00;55571.53;5116475;28;20445;-72
2023/09/02 02:20:09;;;;;;;7.95;5.90;;;;;;;-140.66;100.00;55571.53;5115803;28;20023;-73
2023/09/02 02:22:55;;;;;;;8.10;5.85;;;;;;;-140.66;100.00;55571.53;5116249;28;20484;-72
2023/09/02 02:25:41;;;;;;;6.57;5.07;;;;;;;-140.66;100.00;55571.53;5115452;28;20135;-72
2023/09/02 02:28:30;;;;;;;10.38;5.80;;;;;;;-140.66;100.00;55571.53;5116503;28;20016;-73
2023/09/02 02:31:16;;;;;;;8.98;5.97;;;;;;;-140.66;100.00;55571.53;5101040;28;20035;-73
2023/09/02 02:34:02;;;;;;;8.32;5.80;;;;;;;-140.66;100.00;55571.53;5116274;28;20442;-73
2023/09/02 02:36:48;;;;;;;8.38;5.53;;;;;;;-140.66;100.00;55571.53;5116642;28;20027;-72
2023/09/02 02:39:34;;;;;;;9.63;5.93;;;;;;;-140.66;100.00;55571.53;5101665;28;20074;-72
2023/09/02 02:42:22;;;;;;;6.22;5.38;;;;;;;-140.66;100.00;55571.53;5116606;28;20027;-72
2023/09/02 02:45:08;;;;;;;10.07;5.75;;;;;;;-140.66;100.00;55571.53;5115542;28;20084;-72
2023/09/02 02:47:54;;;;;;;7.05;5.75;;;;;;;-140.66;100.00;55571.53;5101577;28;20031;-72
2023/09/02 02:50:40;;;;;;;9.60;6.00;;;;;;;-140.66;100.00;55571.53;5116745;28;20016;-73
2023/09/02 02:53:26;;;;;;;10.65;6.50;;;;;;;-140.66;100.00;55571.53;5115807;28;20039;-72
2023/09/02 02:56:12;;;;;;;10.27;5.63;;;;;;;-140.66;100.00;55571.53;5101688;28;20034;-72
2023/09/02 02:58:57;;;;;;;12.38;6.20;;;;;;;-140.66;100.00;55571.53;5115805;28;20032;-73
2023/09/02 03:01:43;;;;;;;14.18;6.15;;;;;;;-140.66;100.00;55571.53;5116097;28;20118;-72
2023/09/02 03:04:29;;;;;;;9.23;6.32;;;;;;;-140.66;100.00;55571.53;5115720;28;20051;-73
2023/09/02 03:07:15;;;;;;;9.90;6.20;;;;;;;-140.66;100.00;55571.53;5100818;28;20476;-73
2023/09/02 03:10:01;;;;;;;12.05;6.30;;;;;;;-140.66;100.00;55571.53;5115099;28;20418;-73
2023/09/02 03:12:46;;;;;;;16.00;6.40;;;;;;;-140.66;100.00;55571.53;5101047;28;20027;-73
2023/09/02 03:15:32;;;;;;;14.32;6.55;;;;;;;-140.66;100.00;55571.53;5100984;28;20028;-72
2023/09/02 03:18:19;;;;;;;8.65;5.90;;;;;;;-140.66;100.00;55571.53;5100079;28;20055;-72
2023/09/02 03:21:07;;;;;;;9.10;6.30;;;;;;;-140.66;100.00;55571.53;5116734;28;20038;-72
2023/09/02 03:23:52;;;;;;;8.27;5.90;;;;;;;-140.66;100.00;55571.53;5115547;28;20027;-72
2023/09/02 03:26:38;;;;;;;7.90;6.07;;;;;;;-140.66;100.00;55571.53;5115786;28;20027;-73
2023/09/02 03:29:24;;;;;;;8.88;6.05;;;;;;;-140.66;100.00;55571.53;5114854;28;20016;-72
2023/09/02 03:32:10;;;;;;;10.82;6.38;;;;;;;-140.66;100.00;55571.53;5114326;28;20031;-72
2023/09/02 03:34:55;;;;;;;9.23;6.22;;;;;;;-140.66;100.00;55571.53;5114148;28;20043;-73
2023/09/02 03:37:43;;;;;;;15.20;6.80;;;;;;;-140.66;100.00;55571.53;5114459;28;20461;-73
2023/09/02 03:40:29;;;;;;;8.85;6.28;;;;;;;-140.66;100.00;55571.53;5113304;28;20122;-72
2023/09/02 03:43:14;;;;;;;10.27;6.70;;;;;;;-140.66;100.00;55571.53;5099972;28;20023;-73
2023/09/02 03:46:00;;;;;;;11.82;6.60;;;;;;;-140.66;100.00;55571.53;5100055;28;20055;-72
2023/09/02 03:48:48;;;;;;;10.35;6.35;;;;;;;-140.66;100.00;55571.53;5114718;28;20522;-73
2023/09/02 03:51:33;;;;;;;14.52;6.65;;;;;;;-140.66;100.00;55571.53;5101442;28;20387;-73
2023/09/02 03:54:20;;;;;;;11.15;6.10;;;;;;;-140.66;100.00;55571.53;5099239;28;20027;-72
2023/09/02 03:57:05;;;;;;;17.42;6.20;;;;;;;-140.66;100.00;55571.53;5106107;28;20030;-72
2023/09/02 03:59:51;;;;;;;14.88;6.57;;;;;;;-140.66;100.00;55571.53;5115232;28;20026;-72
2023/09/02 04:02:37;;;;;;;11.68;5.80;;;;;;;-140.66;100.00;55571.53;5116021;28;20510;-72
2023/09/02 04:05:23;;;;;;;9.57;6.20;;;;;;;-140.66;100.00;55571.53;5115735;28;20039;-72
2023/09/02 04:08:09;;;;;;;17.27;7.05;;;;;;;-140.66;100.00;55571.53;5107186;28;20084;-72
2023/09/02 04:10:55;;;;;;;12.93;6.45;;;;;;;-140.66;100.00;55571.53;5115705;28;20043;-72
2023/09/02 04:13:44;;;;;;;17.02;6.20;;;;;;;-140.66;100.00;55571.53;5115043;28;20086;-73
2023/09/02 04:16:30;;;;;;;11.70;6.07;;;;;;;-140.66;100.00;55571.53;5113833;28;20073;-73
2023/09/02 04:19:17;;;;;;;10.80;6.68;;;;;;;-140.66;100.00;55571.53;5114073;28;20035;-73
2023/09/02 04:22:03;;;;;;;9.05;5.72;;;;;;;-140.66;100.00;55571.53;5114045;28;20086;-73
2023/09/02 04:24:49;;;;;;;8.88;5.75;;;;;;;-140.66;100.00;55571.53;5115738;28;20236;-73
2023/09/02 04:27:34;;;;;;;16.58;5.85;;;;;;;-140.66;100.00;55571.53;5099195;28;20410;-72
2023/09/02 04:30:22;;;;;;;10.32;5.40;;;;;;;-140.66;100.00;55571.53;5115120;28;20027;-73
2023/09/02 04:33:09;;;;;;;10.13;6.35;;;;;;;-140.66;100.00;55571.53;5099885;28;20020;-73
2023/09/02 04:35:55;;;;;;;9.32;6.60;;;;;;;-140.66;100.00;55571.53;5115289;28;20096;-72
2023/09/02 04:38:41;;;;;;;9.55;7.40;;;;;;;-140.66;100.00;55571.53;5115190;28;20043;-73
2023/09/02 04:41:26;;;;;;;10.65;6.90;;;;;;;-140.66;100.00;55571.53;5114681;28;20035;-73
2023/09/02 04:44:16;;;;;;;9.85;7.65;;;;;;;-140.66;100.00;55571.53;5099794;28;20124;-73
2023/09/02 04:47:03;;;;;;;9.45;7.40;;;;;;;-140.66;100.00;55571.53;5113470;28;20020;-72
2023/09/02 04:49:49;;;;;;;8.55;7.63;;;;;;;-140.66;100.00;55571.53;5114838;28;20026;-73
2023/09/02 04:52:35;;;;;;;12.25;7.57;;;;;;;-140.66;100.00;55571.53;5099805;28;20020;-73
2023/09/02 04:55:21;;;;;;;10.40;8.18;;;;;;;-140.66;100.00;55571.53;5098699;28;20028;-73
2023/09/02 04:58:07;;;;;;;10.32;7.97;;;;;;;-140.66;100.00;55571.53;5100181;28;20129;-73
2023/09/02 05:00:53;;;;;;;12.15;8.25;;;;;;;-140.66;100.00;55571.53;5113903;28;20360;-74
2023/09/02 05:03:39;;;;;;;11.02;8.20;;;;;;;-140.66;100.00;55571.53;5113803;28;20046;-73
2023/09/02 05:06:25;;;;;;;10.68;7.75;;;;;;;-140.66;100.00;55571.53;5114134;28;20322;-73
2023/09/02 05:09:10;;;;;;;9.70;7.20;;;;;;;-140.66;100.00;55571.53;5113890;28;20024;-73
2023/09/02 05:11:56;;;;;;;11.25;7.85;;;;;;;-140.66;100.00;55571.53;5113192;28;20027;-72
2023/09/02 05:14:42;;;;;;;11.93;7.55;;;;;;;-140.66;100.00;55571.53;5114434;28;20369;-72
2023/09/02 05:17:28;;;;;;;10.63;7.53;;;;;;;-140.66;100.00;55571.53;5115035;28;20140;-72
2023/09/02 05:20:13;;;;;;;14.57;7.82;;;;;;;-140.66;100.00;55571.53;5099381;28;20020;-72
2023/09/02 05:22:59;;;;;;;10.52;7.97;;;;;;;-140.66;100.00;55571.53;5098442;28;20023;-72
2023/09/02 05:25:45;;;;;;;16.58;8.25;;;;;;;-140.66;100.00;55571.53;5098400;28;20449;-72
2023/09/02 05:28:31;;;;;;;12.02;8.27;;;;;;;-140.66;100.00;55571.53;5114644;28;20350;-72
2023/09/02 05:31:17;;;;;;;13.18;8.63;;;;;;;-140.66;100.00;55571.53;5113837;28;20088;-73
2023/09/02 05:34:03;;;;;;;14.85;9.27;;;;;;;-140.66;100.00;55571.53;5115643;28;20449;-73
2023/09/02 05:36:48;;;;;;;17.08;10.10;;;;;;;-140.66;100.00;55571.53;5112751;28;20023;-73
2023/09/02 05:39:34;;;;;;;12.57;9.13;;;;;;;-140.66;100.00;55571.53;5113925;28;20023;-73
2023/09/02 05:42:20;;;;;;;14.52;10.07;;;;;;;-140.66;100.00;55571.53;5113030;28;20027;-73
2023/09/02 05:45:06;;;;;;;13.93;9.73;;;;;;;-140.66;100.00;55571.53;5112753;28;20079;-73
2023/09/02 05:47:52;;;;;;;14.15;10.25;;;;;;;-140.66;100.00;55571.53;5114532;28;20110;-72
2023/09/02 05:50:38;;;;;;;12.07;10.00;;;;;;;-140.66;100.00;55571.53;5113801;28;20023;-72
2023/09/02 05:53:24;;;;;;;17.02;10.02;;;;;;;-140.66;100.00;55571.53;5108325;28;20411;-73
2023/09/02 05:56:09;;;;;;;14.40;9.02;;;;;;;-140.66;100.00;55571.53;5113766;28;20323;-74
2023/09/02 05:58:55;;;;;;;11.70;8.98;;;;;;;-140.66;100.00;55571.53;5113172;28;20106;-73
2023/09/02 06:01:43;;;;;;;12.40;8.60;;;;;;;-140.66;100.00;55571.53;5113959;28;20030;-73
2023/09/02 06:04:28;;;;;;;18.67;10.25;;;;;;;-140.66;100.00;55571.53;5097562;28;20425;-73
2023/09/02 06:07:14;;;;;;;16.17;9.52;;;;;;;-140.66;100.00;55571.53;5114608;28;20031;-72
2023/09/02 06:10:00;;;;;;;19.95;8.77;;;;;;;-140.66;100.00;55571.53;5116177;28;20024;-72
2023/09/02 06:12:45;;;;;;;11.60;8.07;;;;;;;-140.66;100.00;55571.53;5116006;28;20035;-72
2023/09/02 06:15:31;;;;;;;14.27;7.82;;;;;;;-140.66;100.00;55571.53;5116854;28;20055;-72
2023/09/02 06:18:17;;;;;;;13.82;7.57;;;;;;;-140.66;100.00;55571.53;5116704;28;20027;-72
2023/09/02 06:21:13;;;;;;;10.02;7.80;;;;;;;-140.66;100.00;55571.53;5117911;28;20019;-71
2023/09/02 06:23:58;;;;;;;12.38;8.20;;;;;;;-140.66;100.00;55571.53;5117328;28;20027;-72
2023/09/02 06:26:44;;;;;;;8.65;7.47;;;;;;;-140.66;100.00;55571.53;5116324;28;20042;-73
2023/09/02 06:29:33;;;;;;;11.77;8.10;;;;;;;-140.66;100.00;55571.53;5116097;28;20028;-72
2023/09/02 06:32:19;;;;;;;11.60;7.80;;;;;;;-140.66;100.00;55571.53;5100755;28;20073;-73
2023/09/02 06:35:06;;;;;;;10.25;7.90;;;;;;;-140.66;100.00;55571.53;5117790;28;20110;-73
2023/09/02 06:37:52;;;;;;;13.38;8.35;;;;;;;-140.66;100.00;55571.53;5116682;28;20356;-73
2023/09/02 06:40:37;;;;;;;9.18;7.40;;;;;;;-140.66;100.00;55571.53;5117153;28;20046;-73
2023/09/02 06:43:23;;;;;;;13.20;7.90;;;;;;;-140.66;100.00;55571.53;5115093;28;20106;-73
2023/09/02 06:46:10;;;;;;;13.00;8.10;;;;;;;-140.66;100.00;55571.53;5115432;28;20127;-74
2023/09/02 06:48:56;;;;;;;9.68;7.53;;;;;;;-140.66;100.00;55571.53;5116684;28;20051;-73
2023/09/02 06:51:42;;;;;;;11.45;7.95;;;;;;;-140.66;100.00;55571.53;5114571;28;20038;-73
2023/09/02 06:54:28;;;;;;;10.02;7.80;;;;;;;-140.66;100.00;55571.53;5115182;28;20032;-73
2023/09/02 06:57:14;;;;;;;13.63;8.30;;;;;;;-140.66;100.00;55571.53;5116588;28;20110;-72
2023/09/02 06:59:59;;;;;;;11.93;7.05;;;;;;;-140.66;100.00;55571.53;5116726;28;20075;-73
2023/09/02 07:02:45;;;;;;;10.18;7.45;;;;;;;-140.66;100.00;55571.53;5114672;28;20046;-72
2023/09/02 07:05:31;;;;;;;9.68;7.40;;;;;;;-140.66;100.00;55571.53;5115607;28;20460;-73
2023/09/02 07:08:17;;;;;;;9.50;7.20;;;;;;;-140.66;100.00;55571.53;5115518;28;20361;-73
2023/09/02 07:11:02;;;;;;;13.80;6.97;;;;;;;-140.66;100.00;55571.53;5116343;28;20119;-72
2023/09/02 07:13:48;;;;;;;10.68;6.50;;;;;;;-140.66;100.00;55571.53;5115421;28;20035;-73
2023/09/02 07:16:34;;;;;;;12.05;6.68;;;;;;;-140.66;100.00;55571.53;5114746;28;20023;-72
2023/09/02 07:19:20;;;;;;;8.43;6.80;;;;;;;-140.66;100.00;55571.53;5115586;28;20023;-72
2023/09/02 07:22:05;;;;;;;11.02;7.05;;;;;;;-140.66;100.00;55571.53;5116008;28;20035;-72
2023/09/02 07:24:51;;;;;;;10.82;7.00;;;;;;;-140.66;100.00;55571.53;5115007;28;20125;-72
2023/09/02 07:27:37;;;;;;;10.25;6.88;;;;;;;-140.66;100.00;55571.53;5100783;28;20027;-72
2023/09/02 07:30:22;;;;;;;9.27;6.95;;;;;;;-140.66;100.00;55571.53;5115123;28;20468;-73
2023/09/02 07:33:08;;;;;;;11.48;6.32;;;;;;;-140.66;100.00;55571.53;5115236;28;20358;-72
2023/09/02 07:35:54;;;;;;;9.95;6.97;;;;;;;-140.66;100.00;55571.53;5115322;28;20039;-72
2023/09/02 07:38:41;;;;;;;9.93;6.53;;;;;;;-140.66;100.00;55571.53;5115642;28;20360;-72
2023/09/02 07:41:26;;;;;;;15.02;6.93;;;;;;;-140.66;100.00;55571.53;5115794;28;20043;-73
2023/09/02 07:44:12;;;;;;;9.52;6.55;;;;;;;-140.66;100.00;55571.53;5114431;28;20051;-72
2023/09/02 07:46:59;;;;;;;10.30;6.22;;;;;;;-140.66;100.00;55571.53;5114857;28;20070;-73
2023/09/02 07:49:45;;;;;;;9.50;6.00;;;;;;;-140.66;100.00;55571.53;5099947;28;20028;-74
2023/09/02 07:52:30;;;;;;;8.23;6.22;;;;;;;-140.66;100.00;55571.53;5115784;28;20020;-73
2023/09/02 07:55:16;;;;;;;8.27;6.93;;;;;;;-140.66;100.00;55571.53;5116191;28;20102;-72
2023/09/02 07:58:02;;;;;;;9.07;6.57;;;;;;;-140.66;100.00;55571.53;5099899;28;20132;-73
2023/09/02 08:00:48;;;;;;;10.27;6.70;;;;;;;-140.66;100.00;55571.53;5113501;28;20024;-74
2023/09/02 08:03:33;;;;;;;7.78;6.45;;;;;;;-140.66;100.00;55571.53;5099134;28;20019;-73
2023/09/02 08:06:19;;;;;;;13.07;6.97;;;;;;;-140.66;100.00;55571.53;5115317;28;20471;-72
2023/09/02 08:09:05;;;;;;;10.93;6.35;;;;;;;-140.66;100.00;55571.53;5114076;28;20397;-72
2023/09/02 08:11:51;;;;;;;13.38;6.43;;;;;;;-140.66;100.00;55571.53;5114418;28;20102;-73
2023/09/02 08:14:36;;;;;;;10.10;6.30;;;;;;;-140.66;100.00;55571.53;5113784;28;20460;-73
2023/09/02 08:17:22;;;;;;;7.93;5.95;;;;;;;-140.66;100.00;55571.53;5113822;28;20060;-72
2023/09/02 08:20:09;;;;;;;7.38;5.85;;;;;;;-140.66;100.00;55571.53;5113931;28;20051;-72
2023/09/02 08:22:54;;;;;;;8.40;6.22;;;;;;;-140.66;100.00;55571.53;5115155;28;20575;-73
2023/09/02 08:25:40;;;;;;;8.50;6.28;;;;;;;-140.66;100.00;55571.53;5115193;28;20031;-73
2023/09/02 08:28:26;;;;;;;11.55;5.38;;;;;;;-140.66;100.00;55571.53;5113508;28;20130;-73
2023/09/02 08:31:17;;;;;;;9.98;5.80;;;;;;;-140.66;100.00;55571.53;5113560;28;20132;-72
2023/09/02 08:34:03;;;;;;;10.80;5.22;;;;;;;-140.66;100.00;55571.53;5114541;28;20030;-71
2023/09/02 08:36:49;;;;;;;6.50;5.60;;;;;;;-140.66;100.00;55571.53;5099898;28;20104;-72
2023/09/02 08:39:35;;;;;;;10.07;5.55;;;;;;;-140.66;100.00;55571.53;5113447;28;20114;-72
2023/09/02 08:42:21;;;;;;;9.88;5.60;;;;;;;-140.66;100.00;55571.53;5113456;28;20020;-72
2023/09/02 08:45:11;;;;;;;7.10;5.75;;;;;;;-140.66;100.00;55571.53;5112582;28;20058;-73
2023/09/02 08:48:00;;;;;;;12.90;5.82;;;;;;;-140.66;100.00;55571.53;5113020;28;20038;-73
2023/09/02 08:50:46;;;;;;;7.90;5.35;;;;;;;-140.66;100.00;55571.53;5113915;28;20027;-73
2023/09/02 08:53:32;;;;;;;7.28;4.88;;;;;;;-140.66;100.00;55571.53;5098166;28;20140;-73
2023/09/02 08:56:18;;;;;;;7.43;5.55;;;;;;;-140.66;100.00;55571.53;5098400;28;20087;-72
2023/09/02 08:59:04;;;;;;;6.82;5.18;;;;;;;-140.66;100.00;55571.53;5114860;28;20027;-73
2023/09/02 09:01:51;;;;;;;8.07;5.45;;;;;;;-140.66;100.00;55571.53;5113221;28;20066;-73
2023/09/02 09:04:38;;;;;;;7.47;5.20;;;;;;;-140.66;100.00;55571.53;5113039;28;20028;-73
2023/09/02 09:07:25;;;;;;;9.65;5.30;;;;;;;-140.66;100.00;55571.53;5113238;28;20023;-73
2023/09/02 09:10:15;;;;;;;6.63;5.03;;;;;;;-140.66;100.00;55571.53;5106831;28;20030;-72
2023/09/02 09:13:04;;;;;;;6.43;4.35;;;;;;;-140.66;100.00;55571.53;5112842;28;20030;-72
2023/09/02 09:15:54;;;;;;;5.95;4.80;;;;;;;-140.66;100.00;55571.53;5115066;28;20093;-72
2023/09/02 09:18:40;;;;;;;9.00;4.78;;;;;;;-140.66;100.00;55571.53;5114037;28;20408;-72
2023/09/02 09:21:26;;;;;;;6.13;4.50;;;;;;;-140.66;100.00;55571.53;5098752;28;20062;-73
2023/09/02 09:24:12;;;;;;;5.05;4.15;;;;;;;-140.66;100.00;55571.53;5114599;28;20027;-73
2023/09/02 09:27:00;;;;;;;5.18;4.00;;;;;;;-140.66;100.00;55571.53;5112598;28;20102;-73
2023/09/02 09:29:46;;;;;;;5.18;4.22;;;;;;;-140.66;100.00;55571.53;5114373;28;20441;-72
2023/09/02 09:32:31;;;;;;;12.95;4.43;;;;;;;-140.66;100.00;55571.53;5113012;28;20031;-72
2023/09/02 09:35:22;;;;;;;4.47;3.75;;;;;;;-140.66;100.00;55571.53;5113036;28;20023;-72
2023/09/02 09:38:07;;;;;;;5.10;4.35;;;;;;;-140.66;100.00;55571.53;5113824;28;20042;-73
2023/09/02 09:40:53;;;;;;;5.75;3.90;;;;;;;-140.66;100.00;55571.53;5112765;28;20028;-73
2023/09/02 09:43:39;;;;;;;5.45;4.05;;;;;;;-140.66;100.00;55571.53;5117612;28;20123;-73
2023/09/02 09:46:25;;;;;;;6.05;3.75;;;;;;;-140.66;100.00;55571.53;5116981;28;20070;-72
2023/09/02 09:49:30;;;;;;;4.85;4.00;;;;;;;-140.66;100.00;55571.53;5102528;28;20023;-74
2023/09/02 09:52:18;;;;;;;5.05;4.10;;;;;;;-140.66;100.00;55571.53;5118343;28;20034;-73
2023/09/02 09:55:04;;;;;;;5.50;4.30;;;;;;;-140.66;100.00;55571.53;5107536;28;20031;-72
2023/09/02 09:57:53;;;;;;;6.40;3.80;;;;;;;-140.66;100.00;55571.53;5115783;28;20342;-73
2023/09/02 10:00:39;;;;;;;9.45;4.18;;;;;;;-140.66;100.00;55571.53;5101604;28;20053;-73
2023/09/02 10:03:31;;;;;;;5.03;3.67;;;;;;;-140.66;100.00;55571.53;5115567;28;20027;-71
2023/09/02 10:06:18;;;;;;;4.40;3.67;;;;;;;-140.66;100.00;55571.53;5116099;28;20027;-72
2023/09/02 10:09:04;;;;;;;4.10;3.53;;;;;;;-140.66;100.00;55571.53;5101934;28;20551;-73
2023/09/02 10:11:50;;;;;;;6.60;3.85;;;;;;;-140.66;100.00;55571.53;5116446;28;20102;-73
2023/09/02 10:14:36;;;;;;;6.68;3.60;;;;;;;-140.66;100.00;55571.53;5117561;28;20020;-71
2023/09/02 10:17:21;;;;;;;4.82;3.53;;;;;;;-140.66;100.00;55571.53;5102742;28;20055;-73
2023/09/02 10:20:09;;;;;;;7.47;3.95;;;;;;;-140.66;100.00;55571.53;5117145;28;20051;-73
2023/09/02 10:23:03;;;;;;;5.95;3.92;;;;;;;-140.66;100.00;55571.53;5117031;28;20031;-73
2023/09/02 10:26:08;;;;;;;5.40;3.67;;;;;;;-140.66;100.00;55571.53;5116193;28;20480;-73
2023/09/02 10:28:59;;;;;;;7.72;3.50;;;;;;;-140.66;100.00;55571.53;5116033;28;20083;-72
2023/09/02 10:31:51;;;;;;;4.85;3.45;;;;;;;-140.66;100.00;55571.53;5117022;28;20031;-73
2023/09/02 10:34:53;;;;;;;5.22;3.75;;;;;;;-140.66;100.00;55571.53;5116586;28;20108;-74
2023/09/02 10:37:45;;;;;;;5.07;4.10;;;;;;;-140.66;100.00;55571.53;5117763;28;20027;-74
2023/09/02 10:40:39;;;;;;;5.05;3.40;;;;;;;-140.66;100.00;55571.53;5100377;28;20034;-73
2023/09/02 10:43:25;;;;;;;5.03;3.55;;;;;;;-140.66;100.00;55571.53;5116750;28;20118;-74
2023/09/02 10:46:11;;;;;;;5.20;3.65;;;;;;;-140.66;100.00;55571.53;5115073;28;20023;-73
2023/09/02 10:48:59;;;;;;;4.75;3.22;;;;;;;-140.66;100.00;55571.53;5116520;28;20468;-73
2023/09/02 10:51:46;;;;;;;5.55;3.35;;;;;;;-140.66;100.00;55571.53;5116604;28;20031;-73
2023/09/02 10:55:08;;;;;;;5.63;3.80;;;;;;;-140.66;100.00;55571.53;5116810;28;20449;-72
2023/09/02 10:57:55;;;;;;;5.38;3.25;;;;;;;-140.66;100.00;55571.53;5116984;28;20038;-72
2023/09/02 11:00:46;;;;;;;6.55;3.78;;;;;;;-140.66;100.00;55571.53;5103290;28;20027;-73
2023/09/02 11:03:44;;;;;;;6.43;3.88;;;;;;;-140.66;100.00;55571.53;5115844;28;20449;-73
2023/09/02 11:06:30;;;;;;;7.07;3.63;;;;;;;-140.66;100.00;55571.53;5101564;28;20407;-73
2023/09/02 11:10:01;;;;;;;5.90;3.63;;;;;;;-140.66;100.00;55571.53;5101754;28;20106;-74
2023/09/02 11:13:06;;;;;;;6.50;3.92;;;;;;;-140.66;100.00;55571.53;5117394;28;20084;-73
2023/09/02 11:16:13;;;;;;;5.70;3.50;;;;;;;-140.66;100.00;55571.53;5115656;28;20024;-73
2023/09/02 11:19:00;;;;;;;4.07;3.40;;;;;;;-140.66;100.00;55571.53;5115898;28;20031;-73
2023/09/02 11:21:46;;;;;;;3.53;3.22;;;;;;;-140.66;100.00;55571.53;5116789;28;20027;-73
2023/09/02 11:24:47;;;;;;;5.32;3.42;;;;;;;-140.66;100.00;55571.53;5100941;28;20031;-73
2023/09/02 11:27:45;;;;;;;5.38;3.47;;;;;;;-140.66;100.00;55571.53;5116644;28;20030;-73
2023/09/02 11:30:35;;;;;;;6.13;3.25;;;;;;;-140.66;100.00;55571.53;5114627;28;20028;-72
2023/09/02 11:33:21;;;;;;;4.85;3.30;;;;;;;-140.66;100.00;55571.53;5099963;28;20024;-73
2023/09/02 11:36:11;;;;;;;4.68;3.58;;;;;;;-140.66;100.00;55571.53;5114848;28;20116;-73
2023/09/02 11:38:56;;;;;;;5.75;3.70;;;;;;;-140.66;100.00;55571.53;5116117;28;20030;-73
2023/09/02 11:41:42;;;;;;;7.72;4.03;;;;;;;-140.66;100.00;55571.53;5113999;28;20027;-73
2023/09/02 11:44:28;;;;;;;5.97;3.70;;;;;;;-140.66;100.00;55571.53;5114460;28;20094;-73
2023/09/02 11:47:14;;;;;;;4.97;3.13;;;;;;;-140.66;100.00;55571.53;5114267;28;20088;-74
2023/09/02 11:50:00;;;;;;;4.07;3.40;;;;;;;-140.66;100.00;55571.53;5114599;28;20458;-73
2023/09/02 11:52:48;;;;;;;4.90;3.50;;;;;;;-140.66;100.00;55571.53;5114417;28;20051;-73
2023/09/02 11:55:36;;;;;;;5.65;3.58;;;;;;;-140.66;100.00;55571.53;5100007;28;20031;-73
2023/09/02 11:58:22;;;;;;;7.28;3.60;;;;;;;-140.66;100.00;55571.53;5115952;28;20034;-74
2023/09/02 12:01:08;;;;;;;4.63;3.83;;;;;;;-140.66;100.00;55571.53;5115836;28;20043;-74
2023/09/02 12:03:55;;;;;;;4.15;3.53;;;;;;;-140.66;100.00;55571.53;5115812;28;20027;-71
2023/09/02 12:06:41;;;;;;;5.47;3.35;;;;;;;-140.66;100.00;55571.53;5114478;28;20031;-73
2023/09/02 12:09:27;;;;;;;7.82;3.90;;;;;;;-140.66;100.00;55571.53;5099463;28;20016;-73
2023/09/02 12:12:15;;;;;;;5.50;3.72;;;;;;;-140.66;100.00;55571.53;5114451;28;20028;-73
2023/09/02 12:15:03;;;;;;;4.10;3.35;;;;;;;-140.66;100.00;55571.53;5113585;28;20032;-72
2023/09/02 12:17:49;;;;;;;6.90;3.45;;;;;;;-140.66;100.00;55571.53;5115100;28;20060;-74
2023/09/02 12:20:36;;;;;;;4.00;3.40;;;;;;;-140.66;100.00;55571.53;5115966;28;20055;-73
2023/09/02 12:23:22;;;;;;;3.70;3.30;;;;;;;-140.66;100.00;55571.53;5099296;28;20028;-74
2023/09/02 12:26:13;;;;;;;8.02;3.65;;;;;;;-140.66;100.00;55571.53;5101215;28;20437;-73
2023/09/02 12:28:59;;;;;;;3.60;3.30;;;;;;;-140.66;100.00;55571.53;5100179;28;20024;-73
2023/09/02 12:31:58;;;;;;;5.00;3.42;;;;;;;-140.66;100.00;55571.53;5114894;28;20035;-73
2023/09/02 12:34:44;;;;;;;7.68;3.00;;;;;;;-140.66;100.00;55571.53;5115601;28;20054;-74
2023/09/02 12:37:30;;;;;;;10.50;3.65;;;;;;;-140.66;100.00;55571.53;5114547;28;20059;-74